Terminal Aerodrome Forecast
Issued by NWS Tulsa, OK

Home | Current Version | Previous Version | Text Only | Print | Product List | Glossary On
Versions: 1 2 3 4 5 6 7 8 9 10 11 12 13 14 15 16 17 18 19
000
FTUS44 KTSA 231720
TAFFSM
TAF
KFSM 231720Z 2318/2418 25007KT P6SM VCTS SCT025 BKN035CB
      TEMPO 2319/2323 VRB15G30KT 4SM -TSRA BKN025CB
     FM240000 36011KT P6SM BKN060
     FM240900 05011KT P6SM BKN120=

USA.gov is the U.S. government's official web portal to all federal, state and local government web resources and services.